createdAt,value
2018-07-08T09:13:00.090Z,1.47
2018-07-08T09:15:32.504Z,1.30
2018-07-08T09:18:05.202Z,1.40
2018-07-08T09:20:37.614Z,1.55
2018-07-08T09:23:11.073Z,1.50
2018-07-08T09:25:43.478Z,1.37
2018-07-08T09:28:15.898Z,1.45
2018-07-08T09:30:48.598Z,1.55
2018-07-08T09:33:21.005Z,1.47
2018-07-08T09:35:53.401Z,1.40
2018-07-08T09:38:25.994Z,1.35
2018-07-08T09:40:58.598Z,1.37
2018-07-08T09:43:31.154Z,1.27
2018-07-08T09:46:03.598Z,1.30
2018-07-08T09:48:35.998Z,1.60
2018-07-08T09:51:08.414Z,1.37
2018-07-08T09:53:41.470Z,1.37
2018-07-08T09:56:14.190Z,1.30
2018-07-08T09:58:46.850Z,1.30
2018-07-08T10:01:19.254Z,1.35
2018-07-08T10:03:51.918Z,1.30
2018-07-08T10:06:25.065Z,1.40
2018-07-08T10:08:57.497Z,1.30
2018-07-08T10:11:29.998Z,1.47
2018-07-08T10:14:02.521Z,1.67
2018-07-08T10:16:35.055Z,1.32
2018-07-08T10:19:07.461Z,1.40
2018-07-08T10:21:39.866Z,1.50
2018-07-08T10:24:12.290Z,1.52
2018-07-08T10:26:49.748Z,1.42
2018-07-08T10:29:22.210Z,1.40
2018-07-08T10:31:54.973Z,1.25
2018-07-08T10:34:27.634Z,1.30
2018-07-08T10:37:00.048Z,1.52
2018-07-08T10:39:32.441Z,1.30
2018-07-08T10:42:04.879Z,1.15
2018-07-08T10:44:37.621Z,1.50
2018-07-08T10:47:10.329Z,1.60
2018-07-08T10:49:42.746Z,1.50
2018-07-08T10:52:15.171Z,1.50
2018-07-08T10:54:47.561Z,1.42
2018-07-08T10:57:20.226Z,1.80
2018-07-08T10:59:52.659Z,1.50
2018-07-08T11:02:25.378Z,1.50
2018-07-08T11:04:58.193Z,1.87
2018-07-08T11:07:30.941Z,1.65
2018-07-08T11:10:03.897Z,1.75
2018-07-08T11:12:36.317Z,1.45
2018-07-08T11:15:09.021Z,1.90
2018-07-08T11:17:41.450Z,1.60
2018-07-08T11:20:13.890Z,1.55
2018-07-08T11:22:46.297Z,1.55
2018-07-08T11:25:18.690Z,1.50
2018-07-08T11:27:51.086Z,2.17
2018-07-08T11:30:23.506Z,1.30
2018-07-08T11:32:56.365Z,1.80
2018-07-08T11:35:29.277Z,1.95
2018-07-08T11:38:01.726Z,1.52
2018-07-08T11:40:34.129Z,1.90
2018-07-08T11:43:06.807Z,1.90
2018-07-08T11:45:39.198Z,1.77
2018-07-08T11:48:11.852Z,1.42
2018-07-08T11:50:44.254Z,1.40
2018-07-08T11:53:16.702Z,1.87
2018-07-08T11:55:49.889Z,1.77
2018-07-08T11:58:22.659Z,1.63
2018-07-08T12:00:55.074Z,2.30
2018-07-08T12:03:27.523Z,1.70
2018-07-08T12:06:00.001Z,1.90
2018-07-08T12:08:35.634Z,2.00
2018-07-08T12:11:08.029Z,1.47
2018-07-08T12:13:40.878Z,1.80
2018-07-08T12:16:14.351Z,1.75
2018-07-08T12:18:47.001Z,1.60
2018-07-08T12:21:19.464Z,2.00
2018-07-08T12:23:51.829Z,2.05
2018-07-08T12:26:24.483Z,1.52
2018-07-08T12:28:56.901Z,1.82
2018-07-08T12:31:29.307Z,1.70
2018-07-08T12:34:02.296Z,1.77
2018-07-08T12:36:35.269Z,1.50
2018-07-08T12:39:08.151Z,2.00
2018-07-08T12:41:41.489Z,2.10
2018-07-08T12:44:14.510Z,2.17
2018-07-08T12:46:46.782Z,2.15
2018-07-08T12:49:19.225Z,2.30
2018-07-08T12:51:51.651Z,2.22
2018-07-08T12:54:24.107Z,2.55
2018-07-08T12:56:56.554Z,2.20
2018-07-08T12:59:29.188Z,3.20
2018-07-08T13:02:01.609Z,2.00
2018-07-08T13:04:34.041Z,2.37
2018-07-08T13:07:06.692Z,1.80
2018-07-08T13:09:39.160Z,2.10
2018-07-08T13:12:11.860Z,2.42
2018-07-08T13:14:44.320Z,1.80
2018-07-08T13:17:17.006Z,3.03
2018-07-08T13:19:49.765Z,2.70
2018-07-08T13:22:22.142Z,2.47
2018-07-08T13:24:55.262Z,2.50
2018-07-08T13:27:27.674Z,2.50
2018-07-08T13:30:00.148Z,2.20
2018-07-08T13:32:32.600Z,2.22
2018-07-08T13:35:05.393Z,2.37
2018-07-08T13:37:38.854Z,2.52
2018-07-08T13:40:11.566Z,2.57
2018-07-08T13:42:43.978Z,2.77
2018-07-08T13:45:16.378Z,2.33
2018-07-08T13:47:48.806Z,2.70
2018-07-08T13:50:21.239Z,2.20
2018-07-08T13:52:53.934Z,1.77
2018-07-08T13:55:26.716Z,1.98
2018-07-08T13:57:59.781Z,2.50
2018-07-08T14:00:32.209Z,2.20
2018-07-08T14:03:04.955Z,2.27
2018-07-08T14:05:37.715Z,2.25
2018-07-08T14:08:10.177Z,2.30
2018-07-08T14:10:42.610Z,2.10
2018-07-08T14:13:15.054Z,2.40
2018-07-08T14:15:47.490Z,2.17
2018-07-08T14:18:20.274Z,2.10
2018-07-08T14:20:52.816Z,2.27
2018-07-08T14:23:25.150Z,2.67
2018-07-08T14:25:57.593Z,2.35
2018-07-08T14:28:30.029Z,1.85
2018-07-08T14:31:02.489Z,2.33
2018-07-08T14:33:34.882Z,2.33
2018-07-08T14:36:07.348Z,2.20
2018-07-08T14:38:39.786Z,2.17
2018-07-08T14:41:12.254Z,2.35
2018-07-08T14:43:44.669Z,2.30
2018-07-08T14:46:17.163Z,1.87
2018-07-08T14:48:49.526Z,2.05
2018-07-08T14:51:21.966Z,2.17
2018-07-08T14:53:54.391Z,2.37
2018-07-08T14:56:26.807Z,2.08
2018-07-08T14:58:59.217Z,1.82
2018-07-08T15:01:31.636Z,2.42
2018-07-08T15:04:04.072Z,2.10
2018-07-08T15:06:36.498Z,2.10
2018-07-08T15:09:08.962Z,2.00
2018-07-08T15:11:41.389Z,1.75
2018-07-08T15:14:13.887Z,2.67
2018-07-08T15:16:46.348Z,2.35
2018-07-08T15:19:18.766Z,2.27
2018-07-08T15:21:51.271Z,2.30
2018-07-08T15:24:23.603Z,2.00
2018-07-08T15:26:56.406Z,2.30
2018-07-08T15:29:28.819Z,2.65
2018-07-08T15:32:01.251Z,2.27
2018-07-08T15:34:34.294Z,2.00
2018-07-08T15:37:06.786Z,2.10
2018-07-08T15:39:39.225Z,2.20
2018-07-08T15:42:11.654Z,2.00
2018-07-08T15:44:44.058Z,1.92
2018-07-08T15:47:16.566Z,2.10
2018-07-08T15:49:48.936Z,2.27
2018-07-08T15:52:21.358Z,2.10
2018-07-08T15:54:54.087Z,2.20
2018-07-08T15:57:26.538Z,2.02
2018-07-08T15:59:59.062Z,2.02
2018-07-08T16:02:31.698Z,2.00
2018-07-08T16:05:04.112Z,2.20
2018-07-08T16:07:36.362Z,2.33
2018-07-08T16:10:08.772Z,2.37
2018-07-08T16:12:41.204Z,1.82
2018-07-08T16:15:13.598Z,1.70
2018-07-08T16:17:46.594Z,1.92
2018-07-08T16:20:19.060Z,1.90
2018-07-08T16:22:51.469Z,1.90
2018-07-08T16:25:23.889Z,2.15
2018-07-08T16:27:56.370Z,2.00
2018-07-08T16:30:28.838Z,2.30
2018-07-08T16:33:01.230Z,2.02
2018-07-08T16:35:33.715Z,2.08
2018-07-08T16:38:06.118Z,1.90
2018-07-08T16:40:39.159Z,2.00
2018-07-08T16:43:11.881Z,2.02
2018-07-08T16:45:44.315Z,2.25
2018-07-08T16:48:16.738Z,2.25
2018-07-08T16:50:49.191Z,2.20
2018-07-08T16:53:22.146Z,2.47
2018-07-08T16:55:54.660Z,2.20
2018-07-08T16:58:27.405Z,1.92
2018-07-08T17:01:00.162Z,2.10
2018-07-08T17:03:32.594Z,1.80
2018-07-08T17:06:05.342Z,1.98
2018-07-08T17:08:38.101Z,1.98
2018-07-08T17:11:10.558Z,2.00
2018-07-08T17:13:42.977Z,2.47
2018-07-08T17:16:15.481Z,3.12
2018-07-08T17:18:47.916Z,2.17
2018-07-08T17:21:20.398Z,2.10
2018-07-08T17:23:53.147Z,2.62
2018-07-08T17:26:25.621Z,2.12
2018-07-08T17:28:58.023Z,1.85
2018-07-08T17:31:30.467Z,2.17
2018-07-08T17:34:02.878Z,1.90
2018-07-08T17:36:35.630Z,2.10
2018-07-08T17:39:08.051Z,2.00
2018-07-08T17:41:41.198Z,2.10
2018-07-08T17:44:13.651Z,2.00
2018-07-08T17:46:46.206Z,1.70
2018-07-08T17:49:18.905Z,1.90
2018-07-08T17:51:51.364Z,2.00
2018-07-08T17:54:23.782Z,2.00
2018-07-08T17:56:56.539Z,1.95
2018-07-08T17:59:29.211Z,2.30
2018-07-08T18:02:01.861Z,2.10
2018-07-08T18:04:34.314Z,2.10
2018-07-08T18:07:06.752Z,2.20
2018-07-08T18:09:39.169Z,1.90
2018-07-08T18:12:11.914Z,1.82
2018-07-08T18:14:44.385Z,1.80
2018-07-08T18:17:16.959Z,2.08
2018-07-08T18:19:49.424Z,2.00
2018-07-08T18:22:21.905Z,2.00
2018-07-08T18:24:54.889Z,1.90
2018-07-08T18:27:27.392Z,1.85
2018-07-08T18:29:59.804Z,1.80
2018-07-08T18:32:32.543Z,1.65
2018-07-08T18:35:04.964Z,1.90
2018-07-08T18:37:37.677Z,1.80
2018-07-08T18:40:10.198Z,2.00
2018-07-08T18:42:42.670Z,1.80
2018-07-08T18:45:15.410Z,1.87
2018-07-08T18:47:47.833Z,2.02
2018-07-08T18:50:20.285Z,2.00
2018-07-08T18:52:53.185Z,1.67
2018-07-08T18:55:25.630Z,2.10
2018-07-08T18:57:58.060Z,1.72
2018-07-08T19:00:31.046Z,2.10
2018-07-08T19:03:03.495Z,1.87
2018-07-08T19:05:36.742Z,1.52
2018-07-08T19:08:09.536Z,2.08
2018-07-08T19:10:41.966Z,1.85
2018-07-08T19:13:14.399Z,2.10
2018-07-08T19:15:46.798Z,1.70
2018-07-08T19:18:19.265Z,1.87
2018-07-08T19:20:51.714Z,1.60
2018-07-08T19:23:24.201Z,1.90
2018-07-08T19:25:57.149Z,1.75
2018-07-08T19:28:29.581Z,2.12
2018-07-08T19:31:02.011Z,2.00
2018-07-08T19:33:34.658Z,1.77
2018-07-08T19:36:07.119Z,2.10
2018-07-08T19:38:39.911Z,2.23
2018-07-08T19:41:12.329Z,2.10
2018-07-08T19:43:45.496Z,1.87
2018-07-08T19:46:17.917Z,2.12
2018-07-08T19:48:50.634Z,2.20
2018-07-08T19:51:23.081Z,2.20
2018-07-08T19:53:56.094Z,2.10
2018-07-08T19:56:28.746Z,1.93
2018-07-08T19:59:01.271Z,2.20
2018-07-08T20:01:33.749Z,2.30
2018-07-08T20:04:06.187Z,1.90
2018-07-08T20:06:38.606Z,2.47
2018-07-08T20:09:11.064Z,2.40
2018-07-08T20:11:43.781Z,1.90
2018-07-08T20:14:16.602Z,1.67
2018-07-08T20:16:49.046Z,2.33
2018-07-08T20:19:21.494Z,1.90
2018-07-08T20:21:53.906Z,1.70
2018-07-08T20:24:26.364Z,1.97
2018-07-08T20:26:58.768Z,2.30
2018-07-08T20:29:31.201Z,2.20
2018-07-08T20:32:03.664Z,2.20
2018-07-08T20:34:36.581Z,2.00
2018-07-08T20:37:09.134Z,2.03
2018-07-08T20:39:41.591Z,2.00
2018-07-08T20:42:14.010Z,2.30
2018-07-08T20:44:46.510Z,1.90
2018-07-08T20:47:18.938Z,2.10
2018-07-08T20:49:51.853Z,2.20
2018-07-08T20:52:24.614Z,2.23
2018-07-08T20:54:57.057Z,2.00
2018-07-08T20:57:29.492Z,2.00
2018-07-08T21:00:01.910Z,1.83
2018-07-08T21:02:34.382Z,2.03
2018-07-08T21:05:07.107Z,1.70
2018-07-08T21:07:40.370Z,2.37
2018-07-08T21:10:12.890Z,2.10
2018-07-08T21:12:45.716Z,2.40
2018-07-08T21:15:18.098Z,2.30
2018-07-08T21:17:50.502Z,2.10
2018-07-08T21:20:23.270Z,1.90
2018-07-08T21:22:55.767Z,1.80
2018-07-08T21:25:28.185Z,1.97
2018-07-08T21:28:00.606Z,1.93
